sensor_id;sensor_type;location;lat;lon;timestamp;P1;durP1;ratioP1;P2;durP2;ratioP2
22284;SDS011;11311;52.192;20.900;2023-04-24T00:00:55;16.60;;;9.68;;
22284;SDS011;11311;52.192;20.900;2023-04-24T00:03:26;18.17;;;11.32;;
22284;SDS011;11311;52.192;20.900;2023-04-24T00:05:56;15.88;;;9.57;;
22284;SDS011;11311;52.192;20.900;2023-04-24T00:08:26;11.90;;;10.33;;
22284;SDS011;11311;52.192;20.900;2023-04-24T00:10:55;14.77;;;10.20;;
22284;SDS011;11311;52.192;20.900;2023-04-24T00:13:25;12.25;;;10.32;;
22284;SDS011;11311;52.192;20.900;2023-04-24T00:15:55;14.52;;;10.10;;
22284;SDS011;11311;52.192;20.900;2023-04-24T00:18:24;18.38;;;10.38;;
22284;SDS011;11311;52.192;20.900;2023-04-24T00:20:53;15.00;;;10.50;;
22284;SDS011;11311;52.192;20.900;2023-04-24T00:23:22;12.18;;;10.60;;
22284;SDS011;11311;52.192;20.900;2023-04-24T00:25:50;17.30;;;11.27;;
22284;SDS011;11311;52.192;20.900;2023-04-24T00:28:19;15.45;;;9.70;;
22284;SDS011;11311;52.192;20.900;2023-04-24T00:30:50;15.05;;;9.98;;
22284;SDS011;11311;52.192;20.900;2023-04-24T00:33:19;21.33;;;10.95;;
22284;SDS011;11311;52.192;20.900;2023-04-24T00:35:48;14.65;;;10.23;;
22284;SDS011;11311;52.192;20.900;2023-04-24T00:38:17;15.25;;;10.75;;
22284;SDS011;11311;52.192;20.900;2023-04-24T00:40:46;18.23;;;10.15;;
22284;SDS011;11311;52.192;20.900;2023-04-24T00:43:16;11.60;;;10.40;;
22284;SDS011;11311;52.192;20.900;2023-04-24T00:45:46;19.77;;;10.98;;
22284;SDS011;11311;52.192;20.900;2023-04-24T00:48:16;14.10;;;10.50;;
22284;SDS011;11311;52.192;20.900;2023-04-24T00:53:14;22.60;;;10.73;;
22284;SDS011;11311;52.192;20.900;2023-04-24T00:55:42;21.35;;;10.57;;
22284;SDS011;11311;52.192;20.900;2023-04-24T00:58:12;16.52;;;10.18;;
22284;SDS011;11311;52.192;20.900;2023-04-24T01:00:42;13.60;;;9.68;;
22284;SDS011;11311;52.192;20.900;2023-04-24T01:03:12;13.95;;;10.65;;
22284;SDS011;11311;52.192;20.900;2023-04-24T01:05:43;14.63;;;10.18;;
22284;SDS011;11311;52.192;20.900;2023-04-24T01:08:12;18.00;;;10.35;;
22284;SDS011;11311;52.192;20.900;2023-04-24T01:10:41;20.02;;;10.95;;
22284;SDS011;11311;52.192;20.900;2023-04-24T01:13:13;15.38;;;10.23;;
22284;SDS011;11311;52.192;20.900;2023-04-24T01:15:44;13.68;;;10.30;;
22284;SDS011;11311;52.192;20.900;2023-04-24T01:18:13;13.98;;;11.60;;
22284;SDS011;11311;52.192;20.900;2023-04-24T01:20:43;18.02;;;9.50;;
22284;SDS011;11311;52.192;20.900;2023-04-24T01:23:15;14.45;;;11.18;;
22284;SDS011;11311;52.192;20.900;2023-04-24T01:25:43;17.40;;;11.93;;
22284;SDS011;11311;52.192;20.900;2023-04-24T01:28:12;17.10;;;9.52;;
22284;SDS011;11311;52.192;20.900;2023-04-24T01:30:42;13.57;;;9.77;;
22284;SDS011;11311;52.192;20.900;2023-04-24T01:33:11;18.17;;;11.60;;
22284;SDS011;11311;52.192;20.900;2023-04-24T01:35:40;20.02;;;10.60;;
22284;SDS011;11311;52.192;20.900;2023-04-24T01:38:09;18.20;;;11.10;;
22284;SDS011;11311;52.192;20.900;2023-04-24T01:40:40;14.15;;;10.70;;
22284;SDS011;11311;52.192;20.900;2023-04-24T01:43:09;15.05;;;10.27;;
22284;SDS011;11311;52.192;20.900;2023-04-24T01:45:38;15.85;;;10.60;;
22284;SDS011;11311;52.192;20.900;2023-04-24T01:48:07;15.48;;;10.82;;
22284;SDS011;11311;52.192;20.900;2023-04-24T01:50:36;16.23;;;11.73;;
22284;SDS011;11311;52.192;20.900;2023-04-24T01:53:05;13.55;;;10.63;;
22284;SDS011;11311;52.192;20.900;2023-04-24T01:55:35;14.32;;;9.70;;
22284;SDS011;11311;52.192;20.900;2023-04-24T01:58:06;15.32;;;11.70;;
22284;SDS011;11311;52.192;20.900;2023-04-24T02:00:35;11.25;;;9.52;;
22284;SDS011;11311;52.192;20.900;2023-04-24T02:03:04;12.65;;;10.02;;
22284;SDS011;11311;52.192;20.900;2023-04-24T02:05:33;14.82;;;10.82;;
22284;SDS011;11311;52.192;20.900;2023-04-24T02:08:02;14.90;;;10.80;;
22284;SDS011;11311;52.192;20.900;2023-04-24T02:10:31;17.95;;;10.68;;
22284;SDS011;11311;52.192;20.900;2023-04-24T02:13:00;17.25;;;11.05;;
22284;SDS011;11311;52.192;20.900;2023-04-24T02:15:31;16.35;;;11.55;;
22284;SDS011;11311;52.192;20.900;2023-04-24T02:18:00;18.50;;;11.10;;
22284;SDS011;11311;52.192;20.900;2023-04-24T02:20:31;17.92;;;12.52;;
22284;SDS011;11311;52.192;20.900;2023-04-24T02:23:02;13.38;;;11.23;;
22284;SDS011;11311;52.192;20.900;2023-04-24T02:25:31;12.82;;;10.85;;
22284;SDS011;11311;52.192;20.900;2023-04-24T02:28:00;20.42;;;11.25;;
22284;SDS011;11311;52.192;20.900;2023-04-24T02:30:31;18.63;;;11.68;;
22284;SDS011;11311;52.192;20.900;2023-04-24T02:33:00;16.23;;;11.77;;
22284;SDS011;11311;52.192;20.900;2023-04-24T02:35:30;16.70;;;11.68;;
22284;SDS011;11311;52.192;20.900;2023-04-24T02:37:59;13.90;;;11.77;;
22284;SDS011;11311;52.192;20.900;2023-04-24T02:40:28;19.20;;;11.05;;
22284;SDS011;11311;52.192;20.900;2023-04-24T02:42:57;18.23;;;12.35;;
22284;SDS011;11311;52.192;20.900;2023-04-24T02:45:26;16.80;;;11.23;;
22284;SDS011;11311;52.192;20.900;2023-04-24T02:47:56;13.88;;;12.00;;
22284;SDS011;11311;52.192;20.900;2023-04-24T02:52:54;23.38;;;11.80;;
22284;SDS011;11311;52.192;20.900;2023-04-24T02:55:22;26.15;;;12.80;;
22284;SDS011;11311;52.192;20.900;2023-04-24T02:57:52;14.25;;;11.60;;
22284;SDS011;11311;52.192;20.900;2023-04-24T03:00:21;19.55;;;12.05;;
22284;SDS011;11311;52.192;20.900;2023-04-24T03:02:51;15.15;;;12.00;;
22284;SDS011;11311;52.192;20.900;2023-04-24T03:05:22;22.90;;;12.52;;
22284;SDS011;11311;52.192;20.900;2023-04-24T03:07:51;18.23;;;12.30;;
22284;SDS011;11311;52.192;20.900;2023-04-24T03:10:21;18.50;;;11.68;;
22284;SDS011;11311;52.192;20.900;2023-04-24T03:12:50;18.95;;;11.93;;
22284;SDS011;11311;52.192;20.900;2023-04-24T03:15:19;15.15;;;11.35;;
22284;SDS011;11311;52.192;20.900;2023-04-24T03:17:48;17.30;;;11.60;;
22284;SDS011;11311;52.192;20.900;2023-04-24T03:20:17;19.00;;;11.80;;
22284;SDS011;11311;52.192;20.900;2023-04-24T03:22:47;17.33;;;11.52;;
22284;SDS011;11311;52.192;20.900;2023-04-24T03:25:19;13.82;;;11.23;;
22284;SDS011;11311;52.192;20.900;2023-04-24T03:27:48;17.00;;;11.13;;
22284;SDS011;11311;52.192;20.900;2023-04-24T03:30:27;15.65;;;11.20;;
22284;SDS011;11311;52.192;20.900;2023-04-24T03:32:59;15.30;;;11.40;;
22284;SDS011;11311;52.192;20.900;2023-04-24T03:35:31;20.23;;;11.23;;
22284;SDS011;11311;52.192;20.900;2023-04-24T03:38:05;16.17;;;11.30;;
22284;SDS011;11311;52.192;20.900;2023-04-24T03:40:59;24.67;;;10.43;;
22284;SDS011;11311;52.192;20.900;2023-04-24T03:43:54;17.30;;;10.75;;
22284;SDS011;11311;52.192;20.900;2023-04-24T03:46:24;13.15;;;9.10;;
22284;SDS011;11311;52.192;20.900;2023-04-24T03:48:57;15.55;;;10.55;;
22284;SDS011;11311;52.192;20.900;2023-04-24T03:51:31;13.80;;;9.98;;
22284;SDS011;11311;52.192;20.900;2023-04-24T03:54:17;17.83;;;11.77;;
22284;SDS011;11311;52.192;20.900;2023-04-24T03:56:47;17.23;;;11.68;;
22284;SDS011;11311;52.192;20.900;2023-04-24T03:59:16;18.55;;;11.02;;
22284;SDS011;11311;52.192;20.900;2023-04-24T04:01:50;14.80;;;9.90;;
22284;SDS011;11311;52.192;20.900;2023-04-24T04:04:20;20.48;;;11.30;;
22284;SDS011;11311;52.192;20.900;2023-04-24T04:06:50;18.10;;;11.38;;
22284;SDS011;11311;52.192;20.900;2023-04-24T04:09:21;15.27;;;11.57;;
22284;SDS011;11311;52.192;20.900;2023-04-24T04:14:18;15.75;;;11.00;;
22284;SDS011;11311;52.192;20.900;2023-04-24T04:16:47;15.85;;;11.20;;
22284;SDS011;11311;52.192;20.900;2023-04-24T04:19:20;14.57;;;11.30;;
22284;SDS011;11311;52.192;20.900;2023-04-24T04:21:49;15.75;;;10.55;;
22284;SDS011;11311;52.192;20.900;2023-04-24T04:24:29;15.27;;;10.85;;
22284;SDS011;11311;52.192;20.900;2023-04-24T04:26:58;18.98;;;12.55;;
22284;SDS011;11311;52.192;20.900;2023-04-24T04:29:32;22.08;;;10.85;;
22284;SDS011;11311;52.192;20.900;2023-04-24T04:32:04;17.60;;;12.07;;
22284;SDS011;11311;52.192;20.900;2023-04-24T04:34:33;15.70;;;10.77;;
22284;SDS011;11311;52.192;20.900;2023-04-24T04:37:05;17.48;;;11.60;;
22284;SDS011;11311;52.192;20.900;2023-04-24T04:39:46;15.65;;;9.90;;
22284;SDS011;11311;52.192;20.900;2023-04-24T04:42:19;13.40;;;9.07;;
22284;SDS011;11311;52.192;20.900;2023-04-24T04:44:49;18.33;;;12.40;;
22284;SDS011;11311;52.192;20.900;2023-04-24T04:47:24;12.57;;;8.98;;
22284;SDS011;11311;52.192;20.900;2023-04-24T04:49:54;17.83;;;10.05;;
22284;SDS011;11311;52.192;20.900;2023-04-24T04:52:26;15.05;;;11.45;;
22284;SDS011;11311;52.192;20.900;2023-04-24T04:55:09;13.50;;;11.73;;
22284;SDS011;11311;52.192;20.900;2023-04-24T04:57:59;14.82;;;9.05;;
22284;SDS011;11311;52.192;20.900;2023-04-24T05:00:29;13.50;;;9.98;;
22284;SDS011;11311;52.192;20.900;2023-04-24T05:03:07;14.55;;;11.13;;
22284;SDS011;11311;52.192;20.900;2023-04-24T05:05:52;14.55;;;11.10;;
22284;SDS011;11311;52.192;20.900;2023-04-24T05:08:22;18.45;;;11.23;;
22284;SDS011;11311;52.192;20.900;2023-04-24T05:10:55;20.45;;;12.00;;
22284;SDS011;11311;52.192;20.900;2023-04-24T05:13:27;17.17;;;10.25;;
22284;SDS011;11311;52.192;20.900;2023-04-24T05:16:33;20.17;;;11.23;;
22284;SDS011;11311;52.192;20.900;2023-04-24T05:19:02;13.07;;;9.90;;
22284;SDS011;11311;52.192;20.900;2023-04-24T05:21:36;15.02;;;10.40;;
22284;SDS011;11311;52.192;20.900;2023-04-24T05:24:07;17.48;;;11.68;;
22284;SDS011;11311;52.192;20.900;2023-04-24T05:27:10;18.48;;;11.40;;
22284;SDS011;11311;52.192;20.900;2023-04-24T05:29:40;18.67;;;11.75;;
22284;SDS011;11311;52.192;20.900;2023-04-24T05:32:09;17.77;;;11.63;;
22284;SDS011;11311;52.192;20.900;2023-04-24T05:34:38;17.25;;;11.95;;
22284;SDS011;11311;52.192;20.900;2023-04-24T05:37:07;17.73;;;10.52;;
22284;SDS011;11311;52.192;20.900;2023-04-24T05:39:37;16.63;;;10.15;;
22284;SDS011;11311;52.192;20.900;2023-04-24T05:42:10;21.55;;;11.27;;
22284;SDS011;11311;52.192;20.900;2023-04-24T05:47:07;14.30;;;10.15;;
22284;SDS011;11311;52.192;20.900;2023-04-24T05:49:36;16.70;;;10.65;;
22284;SDS011;11311;52.192;20.900;2023-04-24T05:52:06;24.50;;;12.00;;
22284;SDS011;11311;52.192;20.900;2023-04-24T05:54:37;17.40;;;11.90;;
22284;SDS011;11311;52.192;20.900;2023-04-24T05:57:07;19.25;;;11.90;;
22284;SDS011;11311;52.192;20.900;2023-04-24T05:59:52;19.80;;;11.82;;
22284;SDS011;11311;52.192;20.900;2023-04-24T06:02:22;20.45;;;11.50;;
22284;SDS011;11311;52.192;20.900;2023-04-24T06:04:51;17.93;;;12.23;;
22284;SDS011;11311;52.192;20.900;2023-04-24T06:07:21;23.63;;;12.10;;
22284;SDS011;11311;52.192;20.900;2023-04-24T06:09:49;13.98;;;10.90;;
22284;SDS011;11311;52.192;20.900;2023-04-24T06:12:18;26.90;;;12.32;;
22284;SDS011;11311;52.192;20.900;2023-04-24T06:14:57;20.85;;;10.45;;
22284;SDS011;11311;52.192;20.900;2023-04-24T06:17:47;19.55;;;10.30;;
22284;SDS011;11311;52.192;20.900;2023-04-24T06:20:18;20.98;;;10.73;;
22284;SDS011;11311;52.192;20.900;2023-04-24T06:22:46;18.52;;;10.73;;
22284;SDS011;11311;52.192;20.900;2023-04-24T06:25:15;12.95;;;8.98;;
22284;SDS011;11311;52.192;20.900;2023-04-24T06:27:44;20.98;;;10.15;;
22284;SDS011;11311;52.192;20.900;2023-04-24T06:30:14;29.15;;;11.20;;
22284;SDS011;11311;52.192;20.900;2023-04-24T06:32:44;20.08;;;10.48;;
22284;SDS011;11311;52.192;20.900;2023-04-24T06:35:15;19.98;;;10.90;;
22284;SDS011;11311;52.192;20.900;2023-04-24T06:37:43;19.58;;;9.23;;
22284;SDS011;11311;52.192;20.900;2023-04-24T06:40:12;17.05;;;9.48;;
22284;SDS011;11311;52.192;20.900;2023-04-24T06:42:41;24.05;;;9.90;;
22284;SDS011;11311;52.192;20.900;2023-04-24T06:45:10;21.42;;;9.40;;
22284;SDS011;11311;52.192;20.900;2023-04-24T06:47:41;17.15;;;9.95;;
22284;SDS011;11311;52.192;20.900;2023-04-24T06:50:10;20.10;;;11.30;;
22284;SDS011;11311;52.192;20.900;2023-04-24T06:52:39;18.33;;;10.07;;
22284;SDS011;11311;52.192;20.900;2023-04-24T06:55:09;15.32;;;9.20;;
22284;SDS011;11311;52.192;20.900;2023-04-24T06:57:38;14.63;;;8.63;;
22284;SDS011;11311;52.192;20.900;2023-04-24T07:00:08;27.00;;;9.32;;
22284;SDS011;11311;52.192;20.900;2023-04-24T07:02:38;14.95;;;9.15;;
22284;SDS011;11311;52.192;20.900;2023-04-24T07:05:08;17.65;;;8.43;;
22284;SDS011;11311;52.192;20.900;2023-04-24T07:07:37;22.13;;;9.50;;
22284;SDS011;11311;52.192;20.900;2023-04-24T07:10:07;15.02;;;8.55;;
22284;SDS011;11311;52.192;20.900;2023-04-24T07:12:37;20.15;;;9.60;;
22284;SDS011;11311;52.192;20.900;2023-04-24T07:15:06;15.60;;;9.27;;
22284;SDS011;11311;52.192;20.900;2023-04-24T07:20:06;18.35;;;8.38;;
22284;SDS011;11311;52.192;20.900;2023-04-24T07:22:37;23.02;;;9.02;;
22284;SDS011;11311;52.192;20.900;2023-04-24T07:25:06;23.73;;;8.88;;
22284;SDS011;11311;52.192;20.900;2023-04-24T07:27:36;14.02;;;8.70;;
22284;SDS011;11311;52.192;20.900;2023-04-24T07:30:05;13.35;;;8.77;;
22284;SDS011;11311;52.192;20.900;2023-04-24T07:32:34;26.77;;;9.55;;
22284;SDS011;11311;52.192;20.900;2023-04-24T07:35:03;16.85;;;9.35;;
22284;SDS011;11311;52.192;20.900;2023-04-24T07:37:34;22.77;;;9.00;;
22284;SDS011;11311;52.192;20.900;2023-04-24T07:40:03;18.90;;;8.93;;
22284;SDS011;11311;52.192;20.900;2023-04-24T07:42:32;17.40;;;9.83;;
22284;SDS011;11311;52.192;20.900;2023-04-24T07:45:03;16.75;;;8.93;;
22284;SDS011;11311;52.192;20.900;2023-04-24T07:47:33;19.00;;;8.98;;
22284;SDS011;11311;52.192;20.900;2023-04-24T07:52:33;14.25;;;8.95;;
22284;SDS011;11311;52.192;20.900;2023-04-24T07:55:02;17.83;;;8.93;;
22284;SDS011;11311;52.192;20.900;2023-04-24T07:57:32;12.80;;;9.52;;
22284;SDS011;11311;52.192;20.900;2023-04-24T08:00:01;15.20;;;8.48;;
22284;SDS011;11311;52.192;20.900;2023-04-24T08:02:37;25.85;;;9.00;;
22284;SDS011;11311;52.192;20.900;2023-04-24T08:05:06;15.63;;;7.88;;
22284;SDS011;11311;52.192;20.900;2023-04-24T08:07:37;14.40;;;9.40;;
22284;SDS011;11311;52.192;20.900;2023-04-24T08:10:07;16.00;;;7.85;;
22284;SDS011;11311;52.192;20.900;2023-04-24T08:12:38;11.88;;;9.48;;
22284;SDS011;11311;52.192;20.900;2023-04-24T08:15:07;15.95;;;9.15;;
22284;SDS011;11311;52.192;20.900;2023-04-24T08:17:37;18.55;;;10.02;;
22284;SDS011;11311;52.192;20.900;2023-04-24T08:20:06;22.10;;;9.95;;
22284;SDS011;11311;52.192;20.900;2023-04-24T08:22:42;16.15;;;9.00;;
22284;SDS011;11311;52.192;20.900;2023-04-24T08:25:14;31.65;;;10.65;;
22284;SDS011;11311;52.192;20.900;2023-04-24T08:27:43;30.77;;;11.07;;
22284;SDS011;11311;52.192;20.900;2023-04-24T08:30:12;22.98;;;10.07;;
22284;SDS011;11311;52.192;20.900;2023-04-24T08:32:41;14.52;;;8.25;;
22284;SDS011;11311;52.192;20.900;2023-04-24T08:35:10;13.63;;;8.47;;
22284;SDS011;11311;52.192;20.900;2023-04-24T08:37:39;10.32;;;7.38;;
22284;SDS011;11311;52.192;20.900;2023-04-24T08:40:12;9.90;;;8.35;;
22284;SDS011;11311;52.192;20.900;2023-04-24T08:42:42;17.55;;;9.13;;
22284;SDS011;11311;52.192;20.900;2023-04-24T08:45:12;13.20;;;8.80;;
22284;SDS011;11311;52.192;20.900;2023-04-24T08:47:41;12.82;;;8.75;;
22284;SDS011;11311;52.192;20.900;2023-04-24T08:50:11;12.73;;;8.63;;
22284;SDS011;11311;52.192;20.900;2023-04-24T08:52:39;20.67;;;9.20;;
22284;SDS011;11311;52.192;20.900;2023-04-24T08:57:41;28.25;;;9.77;;
22284;SDS011;11311;52.192;20.900;2023-04-24T09:00:12;20.08;;;8.30;;
22284;SDS011;11311;52.192;20.900;2023-04-24T09:02:41;20.10;;;8.10;;
22284;SDS011;11311;52.192;20.900;2023-04-24T09:05:12;15.38;;;8.98;;
22284;SDS011;11311;52.192;20.900;2023-04-24T09:07:41;12.23;;;8.57;;
22284;SDS011;11311;52.192;20.900;2023-04-24T09:10:15;17.42;;;8.82;;
22284;SDS011;11311;52.192;20.900;2023-04-24T09:12:44;13.80;;;8.40;;
22284;SDS011;11311;52.192;20.900;2023-04-24T09:15:13;17.17;;;8.52;;
22284;SDS011;11311;52.192;20.900;2023-04-24T09:17:43;11.73;;;8.05;;
22284;SDS011;11311;52.192;20.900;2023-04-24T09:20:12;18.55;;;8.43;;
22284;SDS011;11311;52.192;20.900;2023-04-24T09:22:41;17.13;;;7.90;;
